Callahan, California
Current Conditions -  °F | °C
As of 1:55 PM on Saturday 25 Oct 2014 (Local Time) from KO86 Reporting Station
Broken Clouds Broken Clouds  
Wind Chill: 55°   Ceiling: 4300
Heat Index: 55°   Visibility: 9mi
Dew Point: 50°   Wind: 15mph
Humidity: 82%   Direction: 170°S
Pressure: 29.86"   Gusts: 21mph
Location:  41.31°N, 122.8°W
Report Text: KO86 252055Z AUTO 17013G18KT 160V220 9SM SCT033 BKN043 BKN050 13/10 A2986 RMK AO1 P0003
Loading
Personal Weather Stations






























Interactive Weather Map
Tropical Storm Tracking
New forecast layout! Learn more

10-Day Weather Forecast

Advertisements
Track Severe Weather on mobile